PWSweather.com
Personal Weather Stations
Station Observations
TARRYHILL
Tarrytown, NY 10591

Tarrytown, NY 10591

Lat: 41.05185, Lon: -73.85296

Elevation: 341

Station Type: Davis Vantage Vue

Latest ConditionsUpdated 1:00:29 PM EDT Thursday, Oct 23, 2014
Currently Today's Max Today's Min Today's Average
Temperature 47.8°F8.8°C 49.8°F9.9°C 47.4°F8.6°C 48.6°F9.2°C
Dew Point 45.9°F7.7°C 47.5°F8.6°C 45.4°F7.4°C 46.5°F8.1°C
Winds 3.2 mph NE5.1 kmh NE 6.9 mph NE11.1 kmh NE - 3.5 mph 5.6 kmh
Wind Gusts 6.0 mph9.7 kmh 16.0 mph25.7 kmh - -
Humidity 93% 95% 90% 92%
Pressure 29.71 in1006.1 mb 29.74 in1007.1 mb 29.69 in1005.4 mb -
Precipitation - 0.18 in4.6 mm - -
Hour Temp Dew Point Humidity Winds Wind Gusts Pressure Precip Precip Rate Daily Precip Total
01:00 PM 47.8°F8.8°C 45.9°F7.7°C 93% 3.2 mph NE5.1 kmh NE 6.0 mph9.7 kmh 29.71 in1006.1 mb 0.00 in0.0 mm 0.00 in/hr0.0 mm/hr 0.18 in4.6 mm
12:50 PM 47.7°F8.7°C 45.8°F7.7°C 93% 2.6 mph WNW4.2 kmh WNW 11.0 mph17.7 kmh 29.71 in1006.1 mb 0.00 in0.0 mm 0.00 in/hr0.0 mm/hr 0.18 in4.6 mm
12:40 PM 47.7°F8.7°C 45.8°F7.7°C 93% 2.8 mph NE4.5 kmh NE 8.0 mph12.9 kmh 29.71 in1006.1 mb 0.00 in0.0 mm 0.00 in/hr0.0 mm/hr 0.18 in4.6 mm
12:30 PM 47.7°F8.7°C 46.1°F7.8°C 94% 2.7 mph NW4.3 kmh NW 4.0 mph6.4 kmh 29.71 in1006.1 mb 0.01 in0.3 mm 0.06 in/hr1.5 mm/hr 0.18 in4.6 mm
12:20 PM 47.6°F8.7°C 46.0°F7.8°C 94% 3.3 mph NW5.3 kmh NW 9.0 mph14.5 kmh 29.72 in1006.4 mb 0.00 in0.0 mm 0.00 in/hr0.0 mm/hr 0.17 in4.3 mm
12:10 PM 47.6°F8.7°C 46.0°F7.8°C 94% 2.9 mph N4.7 kmh N 5.0 mph8.0 kmh 29.72 in1006.4 mb 0.00 in0.0 mm 0.00 in/hr0.0 mm/hr 0.17 in4.3 mm
12:00 PM 47.6°F8.7°C 45.9°F7.7°C 94% 5.2 mph NW8.4 kmh NW 9.0 mph14.5 kmh 29.72 in1006.4 mb 0.01 in0.3 mm 0.01 in/hr0.3 mm/hr 0.17 in4.3 mm
11:50 AM 47.7°F8.7°C 46.3°F7.9°C 95% 2.2 mph WNW3.5 kmh WNW 10.0 mph16.1 kmh 29.72 in1006.4 mb 0.02 in0.5 mm 0.12 in/hr3.0 mm/hr 0.17 in4.3 mm
11:40 AM 47.7°F8.7°C 46.3°F7.9°C 95% 3.8 mph NNE6.1 kmh NNE 6.0 mph9.7 kmh 29.72 in1006.4 mb 0.00 in0.0 mm 0.00 in/hr0.0 mm/hr 0.15 in3.8 mm
11:30 AM 47.7°F8.7°C 46.0°F7.8°C 94% 2.4 mph NW3.9 kmh NW 4.0 mph6.4 kmh 29.71 in1006.1 mb 0.00 in0.0 mm 0.00 in/hr0.0 mm/hr 0.15 in3.8 mm
11:20 AM 47.6°F8.7°C 46.0°F7.8°C 94% 2.1 mph WNW3.4 kmh WNW 9.0 mph14.5 kmh 29.71 in1006.1 mb 0.00 in0.0 mm 0.00 in/hr0.0 mm/hr 0.15 in3.8 mm
11:10 AM 47.4°F8.6°C 45.8°F7.7°C 94% 5.5 mph NNE8.9 kmh NNE 12.0 mph19.3 kmh 29.71 in1006.1 mb 0.01 in0.3 mm 0.06 in/hr1.5 mm/hr 0.15 in3.8 mm
11:00 AM 47.4°F8.6°C 45.4°F7.4°C 93% 5.6 mph NW9.0 kmh NW 6.0 mph9.7 kmh 29.71 in1006.1 mb 0.02 in0.5 mm 0.02 in/hr0.5 mm/hr 0.15 in3.8 mm
10:50 AM 47.7°F8.7°C 45.5°F7.5°C 92% 4.2 mph NW6.8 kmh NW 10.0 mph16.1 kmh 29.71 in1006.1 mb 0.02 in0.5 mm 0.12 in/hr3.0 mm/hr 0.12 in3.0 mm
10:40 AM 48.2°F9.0°C 45.6°F7.6°C 91% 2.8 mph NW4.5 kmh NW 5.0 mph8.0 kmh 29.71 in1006.1 mb 0.00 in0.0 mm 0.00 in/hr0.0 mm/hr 0.10 in2.5 mm
10:30 AM 48.4°F9.1°C 45.6°F7.6°C 90% 3.5 mph N5.6 kmh N 7.0 mph11.3 kmh 29.71 in1006.1 mb 0.00 in0.0 mm 0.00 in/hr0.0 mm/hr 0.10 in2.5 mm
10:20 AM 48.4°F9.1°C 45.9°F7.7°C 91% 5.7 mph N9.2 kmh N 16.0 mph25.7 kmh 29.71 in1006.1 mb 0.00 in0.0 mm 0.00 in/hr0.0 mm/hr 0.10 in2.5 mm
10:10 AM 48.4°F9.1°C 45.9°F7.7°C 91% 6.4 mph NW10.3 kmh NW 10.0 mph16.1 kmh 29.70 in1005.8 mb 0.00 in0.0 mm 0.00 in/hr0.0 mm/hr 0.10 in2.5 mm
10:00 AM 48.2°F9.0°C 46.0°F7.8°C 92% 3.1 mph W5.0 kmh W 7.0 mph11.3 kmh 29.69 in1005.4 mb 0.00 in0.0 mm 0.00 in/hr0.0 mm/hr 0.10 in2.5 mm
09:50 AM 48.0°F8.9°C 45.8°F7.7°C 92% 3.7 mph N6.0 kmh N 7.0 mph11.3 kmh 29.69 in1005.4 mb 0.00 in0.0 mm 0.00 in/hr0.0 mm/hr 0.10 in2.5 mm
09:40 AM 47.9°F8.8°C 45.7°F7.6°C 92% 2.5 mph WNW4.0 kmh WNW 10.0 mph16.1 kmh 29.69 in1005.4 mb 0.00 in0.0 mm 0.00 in/hr0.0 mm/hr 0.10 in2.5 mm
09:30 AM 47.8°F8.8°C 45.9°F7.7°C 93% 4.8 mph NW7.7 kmh NW 8.0 mph12.9 kmh 29.69 in1005.4 mb 0.00 in0.0 mm 0.00 in/hr0.0 mm/hr 0.10 in2.5 mm
09:20 AM 47.7°F8.7°C 45.8°F7.7°C 93% 3.8 mph N6.1 kmh N 8.0 mph12.9 kmh 29.69 in1005.4 mb 0.00 in0.0 mm 0.00 in/hr0.0 mm/hr 0.10 in2.5 mm
09:10 AM 47.6°F8.7°C 46.0°F7.8°C 94% 3.2 mph NE5.1 kmh NE 8.0 mph12.9 kmh 29.69 in1005.4 mb 0.00 in0.0 mm 0.00 in/hr0.0 mm/hr 0.10 in2.5 mm
09:00 AM 47.5°F8.6°C 45.9°F7.7°C 94% 4.3 mph NE6.9 kmh NE 12.0 mph19.3 kmh 29.69 in1005.4 mb 0.00 in0.0 mm 0.00 in/hr0.0 mm/hr 0.10 in2.5 mm
08:50 AM 47.5°F8.6°C 45.9°F7.7°C 94% 4.5 mph SSW7.2 kmh SSW 5.0 mph8.0 kmh 29.69 in1005.4 mb 0.01 in0.3 mm 0.06 in/hr1.5 mm/hr 0.10 in2.5 mm
08:40 AM 47.5°F8.6°C 45.9°F7.7°C 94% 5.9 mph NE9.5 kmh NE 12.0 mph19.3 kmh 29.70 in1005.8 mb 0.00 in0.0 mm 0.00 in/hr0.0 mm/hr 0.09 in2.3 mm
08:30 AM 47.6°F8.7°C 45.9°F7.7°C 94% 5.2 mph NE8.4 kmh NE 6.0 mph9.7 kmh 29.70 in1005.8 mb 0.01 in0.3 mm 0.06 in/hr1.5 mm/hr 0.09 in2.3 mm
08:20 AM 47.7°F8.7°C 46.1°F7.8°C 94% 1.2 mph NW1.9 kmh NW 3.0 mph4.8 kmh 29.70 in1005.8 mb 0.01 in0.3 mm 0.06 in/hr1.5 mm/hr 0.08 in2.0 mm
08:10 AM 47.7°F8.7°C 46.1°F7.8°C 94% 4.1 mph N6.6 kmh N 10.0 mph16.1 kmh 29.70 in1005.8 mb 0.02 in0.5 mm 0.12 in/hr3.0 mm/hr 0.07 in1.8 mm
08:00 AM 47.7°F8.7°C 46.1°F7.8°C 94% 3.6 mph NE5.8 kmh NE 10.0 mph16.1 kmh 29.70 in1005.8 mb 0.01 in0.3 mm 0.01 in/hr0.3 mm/hr 0.06 in1.5 mm
07:50 AM 47.8°F8.8°C 45.9°F7.7°C 93% 2.7 mph NNE4.3 kmh NNE 5.0 mph8.0 kmh 29.69 in1005.4 mb 0.00 in0.0 mm 0.00 in/hr0.0 mm/hr 0.05 in1.3 mm
07:40 AM 47.9°F8.8°C 46.0°F7.8°C 93% 3.6 mph ESE5.8 kmh ESE 10.0 mph16.1 kmh 29.69 in1005.4 mb 0.01 in0.3 mm 0.06 in/hr1.5 mm/hr 0.05 in1.3 mm
07:30 AM 48.2°F9.0°C 46.0°F7.8°C 92% 5.7 mph WNW9.2 kmh WNW 11.0 mph17.7 kmh 29.69 in1005.4 mb 0.01 in0.3 mm 0.06 in/hr1.5 mm/hr 0.04 in1.0 mm
07:20 AM 48.5°F9.2°C 46.0°F7.8°C 91% 3.0 mph ENE4.8 kmh ENE 11.0 mph17.7 kmh 29.69 in1005.4 mb 0.00 in0.0 mm 0.00 in/hr0.0 mm/hr 0.03 in0.8 mm
07:10 AM 48.7°F9.3°C 45.9°F7.7°C 90% 3.6 mph N5.8 kmh N 11.0 mph17.7 kmh 29.69 in1005.4 mb 0.00 in0.0 mm 0.00 in/hr0.0 mm/hr 0.03 in0.8 mm
07:00 AM 48.7°F9.3°C 46.2°F7.9°C 91% 5.5 mph NW8.9 kmh NW 14.0 mph22.5 kmh 29.69 in1005.4 mb 0.00 in0.0 mm 0.00 in/hr0.0 mm/hr 0.03 in0.8 mm
06:50 AM 48.8°F9.3°C 46.3°F7.9°C 91% 4.6 mph WNW7.4 kmh WNW 10.0 mph16.1 kmh 29.69 in1005.4 mb 0.00 in0.0 mm 0.00 in/hr0.0 mm/hr 0.03 in0.8 mm
06:40 AM 48.8°F9.3°C 46.3°F7.9°C 91% 6.0 mph WNW9.7 kmh WNW 14.0 mph22.5 kmh 29.70 in1005.8 mb 0.00 in0.0 mm 0.00 in/hr0.0 mm/hr 0.03 in0.8 mm
06:30 AM 48.9°F9.4°C 46.4°F8.0°C 91% 1.2 mph NNW1.9 kmh NNW 2.0 mph3.2 kmh 29.70 in1005.8 mb 0.00 in0.0 mm 0.00 in/hr0.0 mm/hr 0.03 in0.8 mm
06:20 AM 49.0°F9.4°C 46.5°F8.1°C 91% 6.9 mph NE11.1 kmh NE 10.0 mph16.1 kmh 29.70 in1005.8 mb 0.00 in0.0 mm 0.00 in/hr0.0 mm/hr 0.03 in0.8 mm
06:10 AM 49.1°F9.5°C 46.6°F8.1°C 91% 3.5 mph N5.6 kmh N 6.0 mph9.7 kmh 29.70 in1005.8 mb 0.00 in0.0 mm 0.00 in/hr0.0 mm/hr 0.03 in0.8 mm
06:00 AM 49.1°F9.5°C 46.6°F8.1°C 91% 3.0 mph NW4.8 kmh NW 7.0 mph11.3 kmh 29.70 in1005.8 mb 0.00 in0.0 mm 0.00 in/hr0.0 mm/hr 0.03 in0.8 mm
05:50 AM 49.0°F9.4°C 46.5°F8.1°C 91% 6.0 mph NE9.7 kmh NE 10.0 mph16.1 kmh 29.70 in1005.8 mb 0.00 in0.0 mm 0.00 in/hr0.0 mm/hr 0.03 in0.8 mm
05:40 AM 49.0°F9.4°C 46.8°F8.2°C 92% 4.4 mph NNE7.1 kmh NNE 8.0 mph12.9 kmh 29.70 in1005.8 mb 0.00 in0.0 mm 0.00 in/hr0.0 mm/hr 0.03 in0.8 mm
05:30 AM 48.9°F9.4°C 46.7°F8.2°C 92% 4.4 mph NE7.1 kmh NE 6.0 mph9.7 kmh 29.70 in1005.8 mb 0.00 in0.0 mm 0.00 in/hr0.0 mm/hr 0.03 in0.8 mm
05:20 AM 48.8°F9.3°C 46.6°F8.1°C 92% 2.3 mph NE3.7 kmh NE 3.0 mph4.8 kmh 29.70 in1005.8 mb 0.00 in0.0 mm 0.00 in/hr0.0 mm/hr 0.03 in0.8 mm
05:10 AM 48.8°F9.3°C 46.6°F8.1°C 92% 4.4 mph NE7.1 kmh NE 10.0 mph16.1 kmh 29.70 in1005.8 mb 0.00 in0.0 mm 0.00 in/hr0.0 mm/hr 0.03 in0.8 mm
05:00 AM 48.8°F9.3°C 46.9°F8.3°C 93% 4.8 mph NNE7.7 kmh NNE 6.0 mph9.7 kmh 29.70 in1005.8 mb 0.01 in0.3 mm 0.01 in/hr0.3 mm/hr 0.03 in0.8 mm
04:50 AM 48.9°F9.4°C 47.0°F8.3°C 93% 2.5 mph ENE4.0 kmh ENE 6.0 mph9.7 kmh 29.70 in1005.8 mb 0.00 in0.0 mm 0.00 in/hr0.0 mm/hr 0.02 in0.5 mm
04:40 AM 49.0°F9.4°C 47.1°F8.4°C 93% 2.4 mph NE3.9 kmh NE 6.0 mph9.7 kmh 29.70 in1005.8 mb 0.00 in0.0 mm 0.00 in/hr0.0 mm/hr 0.02 in0.5 mm
04:30 AM 49.1°F9.5°C 47.2°F8.4°C 93% 2.5 mph W4.0 kmh W 9.0 mph14.5 kmh 29.70 in1005.8 mb 0.00 in0.0 mm 0.00 in/hr0.0 mm/hr 0.02 in0.5 mm
04:20 AM 49.3°F9.6°C 47.1°F8.4°C 92% 4.6 mph NW7.4 kmh NW 8.0 mph12.9 kmh 29.70 in1005.8 mb 0.01 in0.3 mm 0.06 in/hr1.5 mm/hr 0.02 in0.5 mm
04:10 AM 49.4°F9.7°C 47.2°F8.4°C 92% 4.0 mph NNW6.4 kmh NNW 10.0 mph16.1 kmh 29.70 in1005.8 mb 0.00 in0.0 mm 0.00 in/hr0.0 mm/hr 0.01 in0.3 mm
04:00 AM 49.5°F9.7°C 47.3°F8.5°C 92% 2.7 mph NNE4.3 kmh NNE 5.0 mph8.0 kmh 29.71 in1006.1 mb 0.01 in0.3 mm 0.01 in/hr0.3 mm/hr 0.01 in0.3 mm
03:50 AM 49.6°F9.8°C 47.4°F8.6°C 92% 1.9 mph NE3.1 kmh NE 11.0 mph17.7 kmh 29.70 in1005.8 mb 0.00 in0.0 mm 0.00 in/hr0.0 mm/hr 0.00 in0.0 mm
03:40 AM 49.7°F9.8°C 47.5°F8.6°C 92% 2.6 mph ENE4.2 kmh ENE 7.0 mph11.3 kmh 29.70 in1005.8 mb 0.00 in0.0 mm 0.00 in/hr0.0 mm/hr 0.00 in0.0 mm
03:30 AM 49.7°F9.8°C 47.2°F8.4°C 91% 0.7 mph NNW1.1 kmh NNW 3.0 mph4.8 kmh 29.70 in1005.8 mb 0.00 in0.0 mm 0.00 in/hr0.0 mm/hr 0.00 in0.0 mm
03:20 AM 49.6°F9.8°C 47.4°F8.6°C 92% 2.9 mph N4.7 kmh N 4.0 mph6.4 kmh 29.70 in1005.8 mb 0.00 in0.0 mm 0.00 in/hr0.0 mm/hr 0.00 in0.0 mm
03:10 AM 49.7°F9.8°C 47.1°F8.4°C 91% 5.7 mph NE9.2 kmh NE 14.0 mph22.5 kmh 29.71 in1006.1 mb 0.00 in0.0 mm 0.00 in/hr0.0 mm/hr 0.00 in0.0 mm
03:00 AM 49.6°F9.8°C 47.1°F8.4°C 91% 5.3 mph NW8.5 kmh NW 11.0 mph17.7 kmh 29.71 in1006.1 mb 0.00 in0.0 mm 0.00 in/hr0.0 mm/hr 0.00 in0.0 mm
02:50 AM 49.7°F9.8°C 47.2°F8.4°C 91% 2.0 mph NE3.2 kmh NE 4.0 mph6.4 kmh 29.71 in1006.1 mb 0.00 in0.0 mm 0.00 in/hr0.0 mm/hr 0.00 in0.0 mm
02:40 AM 49.7°F9.8°C 47.2°F8.4°C 91% 4.0 mph E6.4 kmh E 5.0 mph8.0 kmh 29.72 in1006.4 mb 0.00 in0.0 mm 0.00 in/hr0.0 mm/hr 0.00 in0.0 mm
02:30 AM 49.7°F9.8°C 47.2°F8.4°C 91% 3.0 mph WNW4.8 kmh WNW 10.0 mph16.1 kmh 29.72 in1006.4 mb 0.00 in0.0 mm 0.00 in/hr0.0 mm/hr 0.00 in0.0 mm
02:20 AM 49.7°F9.8°C 47.2°F8.4°C 91% 2.2 mph SW3.5 kmh SW 7.0 mph11.3 kmh 29.73 in1006.8 mb 0.00 in0.0 mm 0.00 in/hr0.0 mm/hr 0.00 in0.0 mm
02:10 AM 49.7°F9.8°C 47.2°F8.4°C 91% 0.5 mph NE0.8 kmh NE 2.0 mph3.2 kmh 29.73 in1006.8 mb 0.00 in0.0 mm 0.00 in/hr0.0 mm/hr 0.00 in0.0 mm
02:00 AM 49.8°F9.9°C 47.3°F8.5°C 91% 1.0 mph NW1.6 kmh NW 3.0 mph4.8 kmh 29.73 in1006.8 mb 0.00 in0.0 mm 0.00 in/hr0.0 mm/hr 0.00 in0.0 mm
01:50 AM 49.7°F9.8°C 47.2°F8.4°C 91% 1.3 mph NW2.1 kmh NW 6.0 mph9.7 kmh 29.73 in1006.8 mb 0.00 in0.0 mm 0.00 in/hr0.0 mm/hr 0.00 in0.0 mm
01:40 AM 49.5°F9.7°C 47.3°F8.5°C 92% 2.0 mph NNW3.2 kmh NNW 2.0 mph3.2 kmh 29.73 in1006.8 mb 0.00 in0.0 mm 0.00 in/hr0.0 mm/hr 0.00 in0.0 mm
01:30 AM 49.5°F9.7°C 47.3°F8.5°C 92% 3.1 mph NW5.0 kmh NW 6.0 mph9.7 kmh 29.74 in1007.1 mb 0.00 in0.0 mm 0.00 in/hr0.0 mm/hr 0.00 in0.0 mm
01:20 AM 49.4°F9.7°C 47.2°F8.4°C 92% 1.7 mph NW2.7 kmh NW 2.0 mph3.2 kmh 29.74 in1007.1 mb 0.00 in0.0 mm 0.00 in/hr0.0 mm/hr 0.00 in0.0 mm
01:10 AM 49.3°F9.6°C 47.1°F8.4°C 92% 2.4 mph WSW3.9 kmh WSW 5.0 mph8.0 kmh 29.74 in1007.1 mb 0.00 in0.0 mm 0.00 in/hr0.0 mm/hr 0.00 in0.0 mm
01:00 AM 49.2°F9.6°C 47.3°F8.5°C 93% 2.3 mph NW3.7 kmh NW 9.0 mph14.5 kmh 29.73 in1006.8 mb 0.00 in0.0 mm 0.00 in/hr0.0 mm/hr 0.00 in0.0 mm
12:50 AM 49.1°F9.5°C 47.2°F8.4°C 93% 1.7 mph NW2.7 kmh NW 5.0 mph8.0 kmh 29.74 in1007.1 mb 0.00 in0.0 mm 0.00 in/hr0.0 mm/hr 0.00 in0.0 mm
12:40 AM 49.0°F9.4°C 47.1°F8.4°C 93% 3.3 mph NE5.3 kmh NE 6.0 mph9.7 kmh 29.74 in1007.1 mb 0.00 in0.0 mm 0.00 in/hr0.0 mm/hr 0.00 in0.0 mm
12:30 AM 49.0°F9.4°C 47.1°F8.4°C 93% 4.2 mph NW6.8 kmh NW 12.0 mph19.3 kmh 29.74 in1007.1 mb 0.00 in0.0 mm 0.00 in/hr0.0 mm/hr 0.00 in0.0 mm
12:20 AM 48.9°F9.4°C 47.0°F8.3°C 93% 3.8 mph E6.1 kmh E 10.0 mph16.1 kmh 29.74 in1007.1 mb 0.00 in0.0 mm 0.00 in/hr0.0 mm/hr 0.00 in0.0 mm
12:10 AM 48.7°F9.3°C 47.1°F8.4°C 94% 6.8 mph N10.9 kmh N 16.0 mph25.7 kmh 29.74 in1007.1 mb 0.00 in0.0 mm 0.00 in/hr0.0 mm/hr 0.00 in0.0 mm
12:00 AM 48.6°F9.2°C 47.0°F8.3°C 94% 3.1 mph WSW5.0 kmh WSW 5.0 mph8.0 kmh 29.74 in1007.1 mb 0.00 in0.0 mm 0.00 in/hr0.0 mm/hr 0.00 in0.0 mm